Portada
METAR-TAF:

METAR-TAF

Aeropuertos :

Aeropuerto de Londres-Heathrow

Londres-Heathrow, Inglaterra

latitud: 51-29N, longitud: 000-27W, altitud: 24 m

Observación

El informe se hizo hace 32 minutos, a las 22:50 UTC
Viento calma
Temperatura 7°C
Humedad 81%
Presión 1039 hPa
Visibilidad 10 km o más

METAR: EGLL 242250Z AUTO 00000KT 9999 NCD 07/04 Q1039 NOSIG

Hora: 00:22 (23:22 UTC)

Pronóstico

El informe se hizo hace 6 horas y 27 minutos, a las 16:55 UTC
Pronóstico válido del 24 a las 18 UTC al 25 a las 24 UTC
Viento 5 kt del norte
Visibilidad 10 km o más
Escasas nubes a una altura de 4000 ft
Probabilidad 30%
del 25 a las 02 UTC al 25 a las 08 UTC
Visibilidad: 7000 m

TAF: EGLL 241655Z 2418/2524 36005KT 9999 FEW040 PROB30 2502/2508 7000

Observaciones y pronósticos meteorológicos de más de 4000 aeropuertos (mensajes METAR y TAF).

Los puntos amarillos y rojos representan las estaciones disponibles.

Ponga el ratón en el punto deseado para ver el nombre de la estación.

Haga clic para ver las observaciones y los pronósticos meteorológicos.

Para cambiar el mapa : haga clic en los botones verdes con una cruz de color negro para hacer un zoom, en el botón verde con un guión para alejar o en las flechas verdes para mapas adyacentes.


METAR-TAF: